createdAt,value
2019-01-17T00:04:12.386Z,99349.24
2019-01-17T00:09:33.136Z,99337.20
2019-01-17T00:14:49.927Z,99337.98
2019-01-17T00:20:14.489Z,99318.95
2019-01-17T00:25:26.564Z,99334.58
2019-01-17T00:30:46.971Z,99334.91
2019-01-17T00:36:06.826Z,99327.55
2019-01-17T00:41:14.803Z,99314.26
2019-01-17T00:46:25.784Z,99305.86
2019-01-17T00:51:34.008Z,99303.70
2019-01-17T00:56:58.006Z,99307.44
2019-01-17T01:02:14.121Z,99309.26
2019-01-17T01:07:38.902Z,99293.41
2019-01-17T01:13:01.818Z,99291.11
2019-01-17T01:18:18.422Z,99285.89
2019-01-17T01:23:29.887Z,99296.33
2019-01-17T01:28:41.530Z,99294.70
2019-01-17T01:33:57.931Z,99270.92
2019-01-17T01:39:23.561Z,99269.80
2019-01-17T01:44:37.727Z,99268.77
2019-01-17T01:50:05.065Z,99262.72
2019-01-17T01:55:12.347Z,99263.52
2019-01-17T02:00:19.114Z,99251.58
2019-01-17T02:05:27.376Z,99247.73
2019-01-17T02:10:34.480Z,99262.89
2019-01-17T02:15:41.582Z,99242.19
2019-01-17T02:20:49.293Z,99231.20
2019-01-17T02:25:56.435Z,99219.72
2019-01-17T02:31:03.409Z,99213.83
2019-01-17T02:36:10.365Z,99218.57
2019-01-17T02:41:17.503Z,99211.47
2019-01-17T02:46:25.538Z,99205.88
2019-01-17T02:51:32.837Z,99199.91
2019-01-17T02:56:40.325Z,99189.95
2019-01-17T03:01:49.457Z,99201.44
2019-01-17T03:06:56.985Z,99192.92
2019-01-17T03:12:03.585Z,99182.92
2019-01-17T03:17:12.000Z,99176.11
2019-01-17T03:22:19.618Z,99182.12
2019-01-17T03:27:27.119Z,99193.10
2019-01-17T03:32:34.814Z,99185.48
2019-01-17T03:37:42.090Z,99188.67
2019-01-17T03:42:49.877Z,99168.52
2019-01-17T03:47:57.496Z,99179.52
2019-01-17T03:53:05.397Z,99168.56
2019-01-17T03:58:13.241Z,99169.52
2019-01-17T04:03:22.244Z,99183.86
2019-01-17T04:08:29.678Z,99183.88
2019-01-17T04:13:37.879Z,99190.61
2019-01-17T04:18:45.182Z,99185.27
2019-01-17T04:23:55.481Z,99184.72
2019-01-17T04:29:02.812Z,99188.62
2019-01-17T04:34:11.617Z,99173.56
2019-01-17T04:39:19.014Z,99181.92
2019-01-17T04:44:26.921Z,99187.06
2019-01-17T04:49:35.918Z,99191.52
2019-01-17T04:54:43.417Z,99188.41
2019-01-17T04:59:52.724Z,99189.87
2019-01-17T05:05:00.583Z,99188.77
2019-01-17T05:10:11.758Z,99180.89
2019-01-17T05:15:19.468Z,99180.44
2019-01-17T05:20:28.494Z,99184.11
2019-01-17T05:25:36.313Z,99184.92
2019-01-17T05:30:45.213Z,99195.59
2019-01-17T05:35:52.795Z,99203.95
2019-01-17T05:41:00.773Z,99182.27
2019-01-17T05:46:09.342Z,99193.07
2019-01-17T05:51:18.196Z,99192.67
2019-01-17T05:56:25.550Z,99192.73
2019-01-17T06:01:33.783Z,99211.89
2019-01-17T06:06:41.580Z,99196.30
2019-01-17T06:11:48.913Z,99191.48
2019-01-17T06:16:56.313Z,99204.70
2019-01-17T06:22:04.164Z,99205.12
2019-01-17T06:27:11.288Z,99219.03
2019-01-17T06:32:19.114Z,99219.69
2019-01-17T06:37:27.647Z,99215.59
2019-01-17T06:42:34.363Z,99223.04
2019-01-17T06:47:42.508Z,99248.25
2019-01-17T06:52:50.303Z,99253.45
2019-01-17T06:57:58.433Z,99233.69
2019-01-17T07:03:06.815Z,99225.58
2019-01-17T07:08:13.801Z,99229.41
2019-01-17T07:13:23.895Z,99242.50
2019-01-17T07:18:30.978Z,99265.50
2019-01-17T07:23:38.318Z,99266.46
2019-01-17T07:28:48.461Z,99271.09
2019-01-17T07:33:55.240Z,99291.97
2019-01-17T07:39:03.225Z,99304.36
2019-01-17T07:44:09.784Z,99296.97
2019-01-17T07:49:17.323Z,99302.61
2019-01-17T07:54:24.701Z,99287.77
2019-01-17T07:59:32.345Z,99308.23
2019-01-17T08:04:39.192Z,99328.19
2019-01-17T08:09:47.207Z,99324.54
2019-01-17T08:14:53.324Z,99330.34
2019-01-17T08:20:01.545Z,99337.29
2019-01-17T08:25:11.433Z,99338.52
2019-01-17T08:30:25.152Z,99361.23
2019-01-17T08:35:33.445Z,99344.97
2019-01-17T08:40:41.222Z,99354.00
2019-01-17T08:45:48.031Z,99338.67
2019-01-17T08:50:56.096Z,99355.52
2019-01-17T08:56:03.268Z,99367.83
2019-01-17T09:01:10.374Z,99364.16
2019-01-17T09:06:17.869Z,99374.28
2019-01-17T09:11:24.611Z,99377.67
2019-01-17T09:16:32.083Z,99376.66
2019-01-17T09:21:39.485Z,99391.05
2019-01-17T09:26:48.288Z,99410.95
2019-01-17T09:31:55.478Z,99385.05
2019-01-17T09:37:03.407Z,99401.41
2019-01-17T09:42:11.178Z,99399.76
2019-01-17T09:47:18.317Z,99392.60
2019-01-17T09:52:26.710Z,99398.16
2019-01-17T09:57:34.854Z,99403.84
2019-01-17T10:02:42.768Z,99401.27
2019-01-17T10:07:51.508Z,99401.64
2019-01-17T10:12:59.224Z,99412.02
2019-01-17T10:18:24.282Z,99408.97
2019-01-17T10:23:56.892Z,99405.62
2019-01-17T10:29:09.268Z,99427.27
2019-01-17T10:34:21.261Z,99392.39
2019-01-17T10:40:00.417Z,99399.76
2019-01-17T10:45:16.252Z,99392.42
2019-01-17T10:50:46.636Z,99380.89
2019-01-17T10:56:15.329Z,99376.23
2019-01-17T11:01:25.871Z,99388.98
2019-01-17T11:06:47.769Z,99380.53
2019-01-17T11:12:23.132Z,99367.89
2019-01-17T11:17:47.731Z,99362.56
2019-01-17T11:23:09.454Z,99369.41
2019-01-17T11:28:18.270Z,99356.95
2019-01-17T11:33:40.871Z,99359.98
2019-01-17T11:38:50.406Z,99349.28
2019-01-17T11:44:25.742Z,99355.65
2019-01-17T11:49:53.971Z,99342.56
2019-01-17T11:55:08.612Z,99337.98
2019-01-17T12:00:33.221Z,99334.77
2019-01-17T12:05:39.143Z,99323.37
2019-01-17T12:10:45.381Z,99337.81
2019-01-17T12:15:52.022Z,99314.31
2019-01-17T12:20:57.753Z,99308.34
2019-01-17T12:26:05.023Z,99308.20
2019-01-17T12:31:11.534Z,99314.72
2019-01-17T12:36:18.534Z,99303.03
2019-01-17T12:41:26.820Z,99296.17
2019-01-17T12:46:33.511Z,99299.42
2019-01-17T12:51:39.613Z,99286.16
2019-01-17T12:56:46.046Z,99279.90
2019-01-17T13:01:51.687Z,99281.52
2019-01-17T13:06:57.477Z,99262.20
2019-01-17T13:12:03.978Z,99254.36
2019-01-17T13:17:10.074Z,99252.16
2019-01-17T13:22:15.732Z,99262.42
2019-01-17T13:27:22.799Z,99250.95
2019-01-17T13:32:29.390Z,99247.95
2019-01-17T13:37:36.780Z,99259.67
2019-01-17T13:42:44.911Z,99256.80
2019-01-17T13:47:53.010Z,99239.35
2019-01-17T13:53:01.859Z,99247.50
2019-01-17T13:58:10.997Z,99246.08
2019-01-17T14:03:17.245Z,99232.78
2019-01-17T14:08:24.297Z,99227.48
2019-01-17T14:13:31.211Z,99227.02
2019-01-17T14:18:39.540Z,99232.47
2019-01-17T14:23:48.031Z,99225.96
2019-01-17T14:28:56.095Z,99224.95
2019-01-17T14:34:02.700Z,99224.77
2019-01-17T14:39:09.451Z,99227.11
2019-01-17T14:44:16.653Z,99198.98
2019-01-17T14:49:24.499Z,99202.88
2019-01-17T14:54:32.409Z,99197.04
2019-01-17T14:59:40.144Z,99216.39
2019-01-17T15:04:48.066Z,99196.85
2019-01-17T15:09:54.047Z,99199.65
2019-01-17T15:15:00.185Z,99194.99
2019-01-17T15:20:10.580Z,99206.47
2019-01-17T15:25:16.397Z,99202.32
2019-01-17T15:30:27.066Z,99188.08
2019-01-17T15:35:33.564Z,99184.95
2019-01-17T15:40:39.445Z,99180.98
2019-01-17T15:45:46.323Z,99180.17
2019-01-17T15:50:53.654Z,99184.95
2019-01-17T15:56:01.665Z,99180.38
2019-01-17T16:01:08.838Z,99180.06
2019-01-17T16:06:16.142Z,99181.03
2019-01-17T16:11:22.239Z,99189.84
2019-01-17T16:16:29.392Z,99189.39
2019-01-17T16:21:37.464Z,99180.40
2019-01-17T16:26:43.199Z,99178.66
2019-01-17T16:31:48.961Z,99183.64
2019-01-17T16:36:57.642Z,99180.77
2019-01-17T16:42:03.902Z,99188.95
2019-01-17T16:47:10.586Z,99193.52
2019-01-17T16:52:16.786Z,99181.66
2019-01-17T16:57:23.864Z,99195.96
2019-01-17T17:02:31.614Z,99187.91
2019-01-17T17:07:38.695Z,99187.21
2019-01-17T17:12:44.691Z,99191.36
2019-01-17T17:17:51.216Z,99196.53
2019-01-17T17:22:57.269Z,99201.85
2019-01-17T17:28:03.053Z,99197.49
2019-01-17T17:33:09.157Z,99214.58
2019-01-17T17:38:15.006Z,99205.01
2019-01-17T17:43:21.055Z,99203.23
2019-01-17T17:48:28.280Z,99209.08
2019-01-17T17:53:34.228Z,99224.81
2019-01-17T17:58:40.943Z,99228.34
2019-01-17T18:03:47.926Z,99223.32
2019-01-17T18:08:54.478Z,99239.50
2019-01-17T18:14:00.768Z,99240.98
2019-01-17T18:19:06.728Z,99254.20
2019-01-17T18:24:12.880Z,99259.53
2019-01-17T18:29:18.450Z,99263.61
2019-01-17T18:34:25.029Z,99270.72
2019-01-17T18:39:31.676Z,99277.75
2019-01-17T18:44:37.841Z,99287.14
2019-01-17T18:49:44.173Z,99296.15
2019-01-17T18:54:52.146Z,99299.23
2019-01-17T18:59:58.155Z,99320.87
2019-01-17T19:05:06.340Z,99324.01
2019-01-17T19:10:14.458Z,99314.30
2019-01-17T19:15:31.812Z,99316.42
2019-01-17T19:20:38.316Z,99345.11
2019-01-17T19:25:44.684Z,99359.72
2019-01-17T19:30:51.294Z,99377.29
2019-01-17T19:35:57.025Z,99371.70
2019-01-17T19:41:03.562Z,99404.84
2019-01-17T19:46:10.196Z,99399.16
2019-01-17T19:51:17.566Z,99412.41
2019-01-17T19:56:23.662Z,99422.61
2019-01-17T20:01:31.430Z,99427.22
2019-01-17T20:06:37.414Z,99443.27
2019-01-17T20:11:42.975Z,99447.39
2019-01-17T20:16:49.492Z,99460.81
2019-01-17T20:21:55.702Z,99459.78
2019-01-17T20:27:03.064Z,99474.78
2019-01-17T20:32:09.363Z,99479.09
2019-01-17T20:37:15.177Z,99482.07
2019-01-17T20:42:21.279Z,99504.84
2019-01-17T20:47:27.564Z,99499.73
2019-01-17T20:52:33.482Z,99527.48
2019-01-17T20:57:42.189Z,99516.23
2019-01-17T21:02:48.296Z,99541.36
2019-01-17T21:07:55.177Z,99528.25
2019-01-17T21:13:00.863Z,99550.48
2019-01-17T21:18:07.713Z,99546.47
2019-01-17T21:23:13.568Z,99553.13
2019-01-17T21:28:19.906Z,99557.13
2019-01-17T21:33:28.295Z,99558.00
2019-01-17T21:38:35.277Z,99566.03
2019-01-17T21:43:41.317Z,99571.76
2019-01-17T21:48:48.096Z,99588.54
2019-01-17T21:53:54.215Z,99609.75
2019-01-17T21:58:59.827Z,99615.90
2019-01-17T22:04:05.990Z,99609.07
2019-01-17T22:09:31.469Z,99619.87
2019-01-17T22:14:38.386Z,99629.44
2019-01-17T22:19:45.211Z,99648.66
2019-01-17T22:24:52.152Z,99635.22
2019-01-17T22:29:58.596Z,99642.80
2019-01-17T22:35:05.989Z,99641.90
2019-01-17T22:40:15.073Z,99640.16
2019-01-17T22:45:30.822Z,99649.77
2019-01-17T22:50:38.392Z,99689.78
2019-01-17T22:55:44.893Z,99661.66
2019-01-17T23:00:55.327Z,99687.20
2019-01-17T23:06:04.156Z,99690.31
2019-01-17T23:11:09.850Z,99715.42
2019-01-17T23:16:17.051Z,99705.48
2019-01-17T23:21:22.719Z,99717.98
2019-01-17T23:26:29.845Z,99732.43
2019-01-17T23:31:36.461Z,99730.05
2019-01-17T23:36:42.644Z,99725.66
2019-01-17T23:41:48.991Z,99738.27
2019-01-17T23:46:54.982Z,99741.00
2019-01-17T23:52:01.688Z,99737.07
2019-01-17T23:57:07.916Z,99772.33
